Farmington, Michigan
Current Conditions -  °F | °C
As of 4:15 AM on Monday 20 Oct 2014 (Local Time) from KVLL Reporting Station
Overcast Overcast  
Wind Chill: 46°   Ceiling: 8000
Heat Index: 49°   Visibility: 10mi
Dew Point: 36°   Wind: 7mph
Humidity: 61%   Direction: 210°SSW
Pressure: 29.92"   Gusts: NA
Location:  42.46°N, 83.38°W
Report Text: KVLL 200815Z AUTO 21006KT 10SM OVC080 10/02 A2992 RMK AO2 T00950023
Loading
Personal Weather Stations






























Interactive Weather Map
Tropical Storm Tracking
New forecast layout! Learn more

10-Day Weather Forecast

Advertisements
Track Severe Weather on mobile